createdAt,value
2018-11-28T00:00:31.882Z,9.60
2018-11-28T00:03:01.805Z,11.22
2018-11-28T00:05:30.830Z,10.85
2018-11-28T00:08:00.308Z,10.82
2018-11-28T00:10:30.051Z,10.88
2018-11-28T00:12:58.760Z,11.22
2018-11-28T00:15:28.143Z,8.78
2018-11-28T00:17:57.153Z,9.68
2018-11-28T00:20:26.068Z,9.95
2018-11-28T00:22:55.023Z,8.95
2018-11-28T00:25:23.665Z,9.68
2018-11-28T00:27:53.184Z,9.50
2018-11-28T00:30:24.195Z,9.95
2018-11-28T00:32:53.446Z,10.75
2018-11-28T00:35:23.652Z,9.58
2018-11-28T00:37:53.329Z,10.10
2018-11-28T00:40:23.957Z,10.03
2018-11-28T00:42:52.971Z,9.08
2018-11-28T00:45:23.690Z,9.55
2018-11-28T00:47:53.261Z,8.73
2018-11-28T00:50:24.658Z,8.33
2018-11-28T00:52:53.959Z,8.80
2018-11-28T00:55:23.618Z,12.73
2018-11-28T00:57:52.408Z,8.85
2018-11-28T01:00:26.102Z,10.53
2018-11-28T01:02:55.231Z,9.05
2018-11-28T01:05:24.914Z,9.50
2018-11-28T01:07:54.887Z,9.00
2018-11-28T01:10:24.875Z,8.30
2018-11-28T01:12:54.748Z,9.05
2018-11-28T01:15:23.848Z,10.13
2018-11-28T01:17:53.395Z,9.80
2018-11-28T01:20:24.022Z,15.43
2018-11-28T01:22:53.789Z,12.65
2018-11-28T01:25:23.330Z,10.75
2018-11-28T01:27:52.709Z,11.12
2018-11-28T01:30:23.293Z,9.15
2018-11-28T01:32:52.080Z,10.45
2018-11-28T01:35:21.828Z,9.65
2018-11-28T01:37:50.663Z,8.65
2018-11-28T01:40:21.459Z,8.83
2018-11-28T01:42:50.590Z,9.70
2018-11-28T01:45:20.956Z,8.90
2018-11-28T01:47:50.033Z,9.43
2018-11-28T01:50:20.673Z,8.38
2018-11-28T01:52:50.151Z,9.58
2018-11-28T01:55:20.708Z,8.95
2018-11-28T01:57:49.477Z,8.38
2018-11-28T02:00:26.344Z,11.38
2018-11-28T02:03:01.748Z,8.95
2018-11-28T02:05:31.464Z,8.48
2018-11-28T02:08:00.376Z,8.60
2018-11-28T02:10:29.556Z,9.50
2018-11-28T02:12:58.411Z,8.45
2018-11-28T02:15:28.095Z,9.85
2018-11-28T02:17:58.076Z,9.38
2018-11-28T02:20:26.849Z,9.30
2018-11-28T02:22:56.239Z,9.90
2018-11-28T02:25:25.817Z,8.10
2018-11-28T02:27:54.647Z,9.90
2018-11-28T02:30:24.097Z,8.28
2018-11-28T02:32:53.465Z,8.93
2018-11-28T02:35:23.209Z,7.17
2018-11-28T02:37:52.223Z,7.05
2018-11-28T02:40:21.163Z,9.05
2018-11-28T02:42:50.802Z,8.23
2018-11-28T02:45:22.540Z,9.50
2018-11-28T02:47:52.667Z,9.40
2018-11-28T02:50:21.563Z,10.85
2018-11-28T02:52:50.825Z,10.10
2018-11-28T02:55:20.450Z,9.75
2018-11-28T02:57:50.857Z,9.00
2018-11-28T03:00:22.534Z,8.63
2018-11-28T03:02:51.204Z,8.53
2018-11-28T03:05:20.497Z,9.58
2018-11-28T03:07:49.688Z,8.38
2018-11-28T03:10:22.650Z,8.98
2018-11-28T03:12:51.407Z,7.65
2018-11-28T03:15:27.338Z,9.13
2018-11-28T03:17:56.258Z,9.48
2018-11-28T03:20:25.229Z,7.97
2018-11-28T03:22:54.228Z,8.90
2018-11-28T03:25:22.975Z,8.70
2018-11-28T03:27:52.189Z,7.75
2018-11-28T03:30:21.843Z,8.53
2018-11-28T03:32:50.663Z,8.48
2018-11-28T03:35:19.313Z,7.97
2018-11-28T03:37:48.259Z,8.10
2018-11-28T03:40:18.239Z,8.85
2018-11-28T03:42:47.542Z,9.25
2018-11-28T03:45:17.113Z,8.45
2018-11-28T03:47:46.274Z,8.28
2018-11-28T03:50:16.359Z,8.95
2018-11-28T03:52:45.851Z,8.63
2018-11-28T03:55:15.788Z,8.03
2018-11-28T03:57:46.026Z,8.98
2018-11-28T04:00:21.320Z,9.60
2018-11-28T04:02:50.783Z,8.28
2018-11-28T04:05:19.779Z,10.55
2018-11-28T04:07:48.718Z,8.55
2018-11-28T04:10:18.481Z,8.55
2018-11-28T04:12:47.124Z,7.95
2018-11-28T04:15:18.789Z,8.95
2018-11-28T04:17:47.965Z,9.80
2018-11-28T04:20:20.524Z,8.58
2018-11-28T04:22:49.141Z,7.65
2018-11-28T04:25:19.592Z,8.28
2018-11-28T04:27:48.452Z,10.03
2018-11-28T04:30:19.336Z,8.78
2018-11-28T04:32:49.166Z,8.75
2018-11-28T04:35:17.920Z,8.30
2018-11-28T04:37:47.397Z,8.75
2018-11-28T04:40:17.097Z,9.28
2018-11-28T04:42:46.782Z,9.65
2018-11-28T04:45:17.519Z,8.40
2018-11-28T04:47:46.496Z,10.30
2018-11-28T04:50:15.189Z,9.15
2018-11-28T04:52:44.555Z,7.80
2018-11-28T04:55:15.603Z,8.18
2018-11-28T04:57:44.745Z,8.90
2018-11-28T05:00:20.391Z,7.28
2018-11-28T05:02:49.717Z,8.53
2018-11-28T05:05:19.284Z,9.98
2018-11-28T05:07:48.784Z,10.55
2018-11-28T05:10:19.437Z,8.98
2018-11-28T05:12:49.069Z,8.40
2018-11-28T05:15:19.270Z,8.58
2018-11-28T05:17:49.956Z,8.93
2018-11-28T05:20:21.487Z,8.98
2018-11-28T05:22:50.873Z,8.58
2018-11-28T05:25:20.951Z,8.85
2018-11-28T05:27:50.529Z,8.45
2018-11-28T05:30:28.377Z,10.38
2018-11-28T05:32:57.503Z,9.25
2018-11-28T05:35:34.648Z,8.25
2018-11-28T05:38:14.211Z,9.50
2018-11-28T05:40:44.739Z,8.65
2018-11-28T05:43:13.599Z,8.25
2018-11-28T05:45:46.010Z,12.40
2018-11-28T05:48:15.501Z,9.63
2018-11-28T05:50:45.162Z,9.38
2018-11-28T05:53:13.933Z,10.53
2018-11-28T05:55:43.139Z,9.25
2018-11-28T05:58:12.509Z,9.25
2018-11-28T06:00:42.119Z,8.23
2018-11-28T06:03:12.984Z,9.53
2018-11-28T06:05:42.736Z,10.15
2018-11-28T06:08:18.340Z,9.35
2018-11-28T06:10:47.470Z,9.80
2018-11-28T06:13:17.065Z,9.45
2018-11-28T06:15:45.775Z,8.88
2018-11-28T06:18:15.404Z,11.05
2018-11-28T06:20:44.854Z,8.95
2018-11-28T06:23:14.397Z,11.15
2018-11-28T06:25:43.864Z,10.00
2018-11-28T06:28:13.837Z,10.63
2018-11-28T06:30:42.841Z,9.80
2018-11-28T06:33:12.624Z,9.45
2018-11-28T06:35:41.593Z,11.40
2018-11-28T06:38:11.224Z,9.20
2018-11-28T06:40:40.366Z,8.65
2018-11-28T06:43:09.579Z,11.30
2018-11-28T06:45:38.595Z,9.98
2018-11-28T06:48:07.397Z,10.98
2018-11-28T06:53:34.300Z,10.35
2018-11-28T06:56:03.375Z,10.58
2018-11-28T06:58:32.132Z,10.95
2018-11-28T07:01:01.530Z,10.45
2018-11-28T07:03:31.337Z,11.33
2018-11-28T07:05:59.999Z,10.45
2018-11-28T07:08:28.868Z,10.28
2018-11-28T07:10:57.804Z,11.43
2018-11-28T07:13:26.404Z,10.43
2018-11-28T07:15:55.884Z,12.07
2018-11-28T07:18:36.364Z,11.73
2018-11-28T07:21:05.812Z,11.80
2018-11-28T07:23:34.992Z,9.08
2018-11-28T07:26:03.776Z,11.25
2018-11-28T07:28:32.636Z,8.75
2018-11-28T07:31:01.487Z,9.10
2018-11-28T07:33:30.340Z,10.08
2018-11-28T07:35:59.137Z,9.53
2018-11-28T07:38:28.456Z,8.50
2018-11-28T07:40:57.915Z,9.93
2018-11-28T07:43:26.873Z,8.53
2018-11-28T07:45:56.516Z,9.23
2018-11-28T07:48:25.885Z,9.68
2018-11-28T07:50:54.729Z,10.93
2018-11-28T07:53:24.001Z,8.85
2018-11-28T07:55:53.523Z,9.10
2018-11-28T07:58:22.904Z,10.13
2018-11-28T08:00:52.722Z,8.40
2018-11-28T08:03:21.876Z,9.88
2018-11-28T08:05:51.794Z,8.30
2018-11-28T08:08:20.593Z,8.25
2018-11-28T08:10:50.920Z,8.68
2018-11-28T08:13:20.255Z,11.08
2018-11-28T08:15:49.694Z,8.65
2018-11-28T08:18:18.392Z,8.80
2018-11-28T08:20:47.999Z,8.60
2018-11-28T08:23:17.505Z,8.83
2018-11-28T08:25:46.732Z,8.13
2018-11-28T08:28:16.315Z,8.58
2018-11-28T08:30:46.097Z,8.10
2018-11-28T08:33:15.496Z,8.35
2018-11-28T08:35:44.587Z,8.40
2018-11-28T08:38:14.221Z,8.35
2018-11-28T08:40:44.033Z,7.78
2018-11-28T08:43:13.305Z,8.13
2018-11-28T08:45:42.232Z,7.20
2018-11-28T08:48:16.473Z,7.47
2018-11-28T08:50:52.869Z,7.60
2018-11-28T08:53:29.557Z,8.35
2018-11-28T08:55:58.824Z,7.40
2018-11-28T08:58:27.716Z,8.50
2018-11-28T09:00:56.942Z,7.60
2018-11-28T09:03:25.668Z,8.20
2018-11-28T09:05:54.756Z,7.78
2018-11-28T09:08:23.644Z,6.78
2018-11-28T09:10:52.525Z,7.70
2018-11-28T09:13:21.447Z,7.75
2018-11-28T09:15:50.219Z,8.35
2018-11-28T09:18:19.314Z,7.65
2018-11-28T09:20:48.632Z,7.25
2018-11-28T09:23:17.304Z,6.95
2018-11-28T09:25:46.750Z,7.53
2018-11-28T09:28:15.697Z,6.83
2018-11-28T09:30:44.602Z,7.08
2018-11-28T09:33:14.236Z,7.67
2018-11-28T09:35:44.036Z,7.20
2018-11-28T09:38:13.726Z,7.70
2018-11-28T09:40:42.743Z,7.05
2018-11-28T09:43:12.520Z,7.10
2018-11-28T09:45:41.217Z,8.15
2018-11-28T09:48:10.280Z,7.78
2018-11-28T09:50:39.071Z,7.85
2018-11-28T09:53:08.574Z,9.43
2018-11-28T09:55:37.874Z,8.48
2018-11-28T09:58:06.601Z,7.85
2018-11-28T10:00:37.019Z,8.35
2018-11-28T10:03:04.664Z,7.90
2018-11-28T10:05:35.063Z,6.12
2018-11-28T10:08:04.661Z,8.40
2018-11-28T10:10:34.110Z,6.92
2018-11-28T10:13:02.782Z,7.58
2018-11-28T10:15:35.566Z,7.83
2018-11-28T10:18:00.722Z,7.10
2018-11-28T10:20:29.366Z,7.92
2018-11-28T10:22:58.961Z,8.88
2018-11-28T10:25:28.177Z,7.72
2018-11-28T10:28:02.218Z,7.58
2018-11-28T10:30:32.575Z,7.78
2018-11-28T10:33:01.868Z,7.25
2018-11-28T10:35:30.487Z,7.28
2018-11-28T10:37:59.552Z,7.05
2018-11-28T10:40:28.464Z,8.28
2018-11-28T10:42:59.167Z,9.53
2018-11-28T10:45:29.805Z,7.15
2018-11-28T10:47:59.250Z,7.92
2018-11-28T10:50:28.285Z,7.95
2018-11-28T10:52:57.203Z,7.58
2018-11-28T10:55:26.905Z,7.15
2018-11-28T10:57:56.290Z,7.70
2018-11-28T11:00:35.340Z,8.68
2018-11-28T11:03:10.428Z,7.70
2018-11-28T11:05:44.604Z,7.75
2018-11-28T11:08:19.337Z,8.28
2018-11-28T11:10:53.442Z,7.47
2018-11-28T11:13:27.706Z,8.23
2018-11-28T11:15:57.437Z,7.47
2018-11-28T11:18:27.966Z,8.08
2018-11-28T11:20:57.440Z,8.35
2018-11-28T11:23:26.385Z,7.97
2018-11-28T11:25:55.528Z,9.40
2018-11-28T11:28:25.139Z,8.25
2018-11-28T11:30:54.644Z,8.73
2018-11-28T11:33:24.013Z,9.35
2018-11-28T11:35:52.686Z,9.43
2018-11-28T11:38:21.259Z,8.65
2018-11-28T11:40:50.590Z,7.12
2018-11-28T11:43:20.086Z,8.90
2018-11-28T11:45:49.143Z,9.53
2018-11-28T11:48:18.502Z,9.05
2018-11-28T11:50:47.372Z,8.63
2018-11-28T11:53:16.469Z,8.75
2018-11-28T11:55:45.259Z,8.65
2018-11-28T11:58:13.909Z,8.23
2018-11-28T12:00:44.294Z,8.30
2018-11-28T12:03:14.656Z,10.90
2018-11-28T12:06:01.146Z,7.00
2018-11-28T12:08:30.641Z,9.33
2018-11-28T12:10:59.357Z,9.00
2018-11-28T12:13:28.740Z,8.40
2018-11-28T12:15:57.427Z,9.68
2018-11-28T12:18:27.035Z,8.40
2018-11-28T12:21:02.199Z,8.33
2018-11-28T12:23:30.824Z,8.20
2018-11-28T12:26:00.210Z,7.35
2018-11-28T12:28:28.840Z,7.72
2018-11-28T12:30:57.941Z,8.88
2018-11-28T12:33:26.988Z,7.95
2018-11-28T12:35:55.790Z,7.83
2018-11-28T12:38:24.815Z,8.00
2018-11-28T12:40:53.661Z,8.68
2018-11-28T12:43:22.465Z,8.58
2018-11-28T12:45:51.707Z,8.08
2018-11-28T12:48:20.583Z,8.45
2018-11-28T12:50:49.280Z,8.55
2018-11-28T12:53:18.262Z,8.70
2018-11-28T12:55:47.214Z,8.03
2018-11-28T12:58:17.463Z,9.35
2018-11-28T13:00:47.243Z,8.35
2018-11-28T13:03:17.676Z,9.68
2018-11-28T13:05:49.667Z,7.72
2018-11-28T13:08:18.656Z,8.90
2018-11-28T13:10:47.759Z,8.18
2018-11-28T13:13:16.726Z,9.03
2018-11-28T13:15:45.361Z,9.45
2018-11-28T13:18:15.111Z,10.38
2018-11-28T13:20:44.329Z,9.13
2018-11-28T13:23:14.214Z,7.83
2018-11-28T13:25:43.673Z,9.03
2018-11-28T13:28:13.059Z,9.50
2018-11-28T13:30:42.785Z,9.20
2018-11-28T13:33:11.447Z,10.98
2018-11-28T13:35:40.307Z,9.10
2018-11-28T13:38:10.655Z,9.03
2018-11-28T13:40:40.760Z,8.73
2018-11-28T13:43:09.409Z,8.53
2018-11-28T13:45:44.038Z,9.05
2018-11-28T13:48:13.267Z,8.53
2018-11-28T13:50:42.849Z,8.65
2018-11-28T13:53:19.382Z,9.15
2018-11-28T13:56:57.361Z,9.43
2018-11-28T13:58:25.153Z,9.18
2018-11-28T14:00:54.838Z,11.30
2018-11-28T14:03:24.339Z,11.00
2018-11-28T14:05:53.820Z,10.18
2018-11-28T14:08:22.749Z,10.08
2018-11-28T14:10:51.868Z,9.38
2018-11-28T14:13:20.837Z,8.90
2018-11-28T14:15:50.020Z,10.78
2018-11-28T14:18:19.916Z,12.45
2018-11-28T14:20:50.241Z,9.15
2018-11-28T14:23:19.889Z,9.50
2018-11-28T14:25:48.855Z,10.23
2018-11-28T14:28:17.618Z,9.65
2018-11-28T14:30:47.649Z,10.98
2018-11-28T14:33:16.995Z,10.43
2018-11-28T14:35:47.619Z,10.63
2018-11-28T14:38:16.567Z,10.15
2018-11-28T14:40:45.565Z,10.25
2018-11-28T14:43:14.498Z,11.35
2018-11-28T14:45:43.695Z,11.53
2018-11-28T14:48:13.180Z,11.30
2018-11-28T14:50:41.956Z,10.40
2018-11-28T14:53:10.772Z,10.18
2018-11-28T14:55:40.966Z,10.53
2018-11-28T14:58:11.377Z,10.30
2018-11-28T15:00:40.641Z,10.98
2018-11-28T15:03:15.266Z,12.85
2018-11-28T15:07:00.213Z,11.65
2018-11-28T15:09:36.045Z,10.93
2018-11-28T15:12:11.615Z,10.00
2018-11-28T15:14:37.171Z,10.28
2018-11-28T15:17:06.552Z,10.23
2018-11-28T15:19:35.418Z,10.03
2018-11-28T15:22:05.029Z,12.00
2018-11-28T15:24:33.943Z,10.68
2018-11-28T15:27:03.528Z,10.95
2018-11-28T15:29:33.341Z,10.48
2018-11-28T15:32:02.548Z,11.33
2018-11-28T15:34:31.668Z,10.85
2018-11-28T15:37:00.766Z,12.68
2018-11-28T15:39:30.141Z,12.43
2018-11-28T15:41:59.789Z,11.25
2018-11-28T15:44:29.229Z,11.28
2018-11-28T15:46:58.289Z,12.47
2018-11-28T15:49:27.427Z,10.45
2018-11-28T15:51:56.262Z,12.10
2018-11-28T15:54:25.649Z,14.83
2018-11-28T15:56:54.813Z,14.50
2018-11-28T15:59:23.647Z,17.05
2018-11-28T16:01:52.417Z,16.37
2018-11-28T16:04:21.261Z,13.62
2018-11-28T16:06:50.304Z,11.88
2018-11-28T16:09:24.257Z,11.70
2018-11-28T16:11:53.505Z,13.05
2018-11-28T16:14:22.342Z,13.03
2018-11-28T16:16:52.370Z,13.68
2018-11-28T16:19:21.004Z,12.70
2018-11-28T16:21:49.756Z,11.93
2018-11-28T16:24:18.708Z,12.80
2018-11-28T16:26:47.710Z,13.35
2018-11-28T16:29:16.869Z,12.63
2018-11-28T16:31:45.844Z,13.15
2018-11-28T16:34:14.850Z,12.75
2018-11-28T16:36:43.912Z,13.40
2018-11-28T16:39:13.496Z,12.50
2018-11-28T16:41:43.042Z,13.83
2018-11-28T16:44:11.886Z,12.85
2018-11-28T16:46:40.952Z,13.70
2018-11-28T16:49:09.761Z,12.73
2018-11-28T16:51:39.427Z,14.30
2018-11-28T16:54:08.429Z,14.07
2018-11-28T16:56:37.363Z,14.25
2018-11-28T16:59:07.083Z,15.25
2018-11-28T17:01:36.762Z,12.20
2018-11-28T17:04:06.141Z,13.98
2018-11-28T17:06:34.958Z,15.28
2018-11-28T17:09:04.711Z,11.83
2018-11-28T17:11:33.610Z,14.78
2018-11-28T17:14:03.563Z,15.15
2018-11-28T17:16:33.993Z,13.60
2018-11-28T17:19:02.918Z,13.28
2018-11-28T17:21:31.805Z,13.22
2018-11-28T17:24:00.688Z,13.68
2018-11-28T17:26:29.989Z,13.75
2018-11-28T17:28:59.610Z,12.68
2018-11-28T17:31:28.583Z,14.78
2018-11-28T17:33:57.690Z,12.55
2018-11-28T17:36:27.504Z,13.15
2018-11-28T17:38:56.388Z,12.40
2018-11-28T17:41:25.594Z,16.32
2018-11-28T17:43:54.857Z,19.90
2018-11-28T17:46:24.650Z,19.67
2018-11-28T17:48:54.111Z,21.48
2018-11-28T17:51:23.535Z,19.00
2018-11-28T17:53:52.170Z,17.77
2018-11-28T17:56:21.338Z,17.37
2018-11-28T17:58:51.093Z,19.60
2018-11-28T18:01:21.043Z,17.25
2018-11-28T18:03:50.307Z,20.08
2018-11-28T18:06:19.320Z,18.87
2018-11-28T18:08:48.295Z,21.70
2018-11-28T18:11:17.090Z,24.30
2018-11-28T18:13:45.966Z,27.98
2018-11-28T18:16:15.065Z,22.80
2018-11-28T18:18:44.549Z,21.85
2018-11-28T18:21:13.480Z,23.55
2018-11-28T18:23:43.025Z,21.30
2018-11-28T18:26:13.788Z,19.80
2018-11-28T18:28:42.965Z,20.88
2018-11-28T18:31:12.171Z,19.57
2018-11-28T18:33:41.054Z,24.82
2018-11-28T18:36:10.615Z,20.68
2018-11-28T18:38:39.261Z,21.40
2018-11-28T18:41:08.744Z,22.15
2018-11-28T18:43:37.745Z,20.37
2018-11-28T18:46:07.915Z,30.43
2018-11-28T18:48:37.125Z,25.92
2018-11-28T18:51:06.640Z,21.60
2018-11-28T18:53:36.103Z,22.45
2018-11-28T18:56:12.555Z,22.25
2018-11-28T18:58:42.072Z,22.93
2018-11-28T19:01:11.761Z,33.83
2018-11-28T19:03:40.913Z,30.97
2018-11-28T19:06:10.283Z,22.17
2018-11-28T19:08:39.100Z,20.10
2018-11-28T19:11:08.303Z,29.32
2018-11-28T19:13:37.289Z,26.02
2018-11-28T19:16:06.701Z,25.55
2018-11-28T19:18:36.715Z,26.07
2018-11-28T19:21:06.098Z,29.52
2018-11-28T19:23:35.716Z,26.17
2018-11-28T19:26:04.740Z,25.45
2018-11-28T19:28:33.637Z,27.73
2018-11-28T19:31:03.254Z,22.10
2018-11-28T19:33:32.141Z,20.15
2018-11-28T19:36:01.909Z,24.30
2018-11-28T19:38:30.674Z,19.07
2018-11-28T19:41:02.203Z,20.43
2018-11-28T19:43:31.756Z,18.73
2018-11-28T19:46:01.172Z,19.70
2018-11-28T19:48:30.914Z,20.08
2018-11-28T19:51:00.384Z,18.32
2018-11-28T19:53:29.638Z,18.25
2018-11-28T19:55:59.293Z,22.05
2018-11-28T19:58:28.087Z,21.40
2018-11-28T20:00:57.706Z,19.90
2018-11-28T20:03:26.914Z,22.50
2018-11-28T20:05:55.819Z,21.27
2018-11-28T20:08:24.910Z,19.82
2018-11-28T20:10:53.799Z,18.37
2018-11-28T20:13:23.243Z,14.25
2018-11-28T20:15:53.480Z,18.52
2018-11-28T20:18:22.166Z,15.45
2018-11-28T20:20:51.086Z,15.13
2018-11-28T20:23:20.515Z,15.08
2018-11-28T20:25:49.434Z,16.23
2018-11-28T20:28:19.947Z,14.98
2018-11-28T20:30:49.454Z,14.13
2018-11-28T20:33:18.852Z,12.50
2018-11-28T20:35:49.859Z,14.70
2018-11-28T20:38:39.621Z,12.68
2018-11-28T20:41:09.185Z,15.40
2018-11-28T20:43:38.878Z,16.42
2018-11-28T20:46:07.725Z,17.42
2018-11-28T20:48:36.715Z,15.00
2018-11-28T20:51:05.615Z,17.37
2018-11-28T20:53:34.965Z,14.93
2018-11-28T20:56:03.828Z,15.43
2018-11-28T20:58:33.157Z,14.60
2018-11-28T21:01:02.530Z,13.75
2018-11-28T21:03:32.193Z,14.18
2018-11-28T21:06:01.306Z,12.33
2018-11-28T21:08:30.173Z,16.65
2018-11-28T21:10:59.103Z,14.85
2018-11-28T21:13:28.346Z,20.12
2018-11-28T21:15:57.026Z,19.52
2018-11-28T21:18:26.253Z,17.65
2018-11-28T21:20:56.041Z,15.68
2018-11-28T21:23:24.855Z,14.87
2018-11-28T21:25:53.583Z,16.37
2018-11-28T21:28:22.846Z,16.95
2018-11-28T21:30:51.996Z,15.05
2018-11-28T21:33:21.886Z,15.95
2018-11-28T21:35:52.223Z,14.90
2018-11-28T21:38:21.766Z,13.90
2018-11-28T21:40:51.432Z,14.78
2018-11-28T21:43:20.528Z,14.83
2018-11-28T21:45:49.725Z,16.57
2018-11-28T21:48:18.959Z,14.07
2018-11-28T21:50:48.522Z,15.78
2018-11-28T21:53:18.108Z,16.75
2018-11-28T21:55:47.087Z,15.28
2018-11-28T21:58:16.448Z,14.33
2018-11-28T22:00:45.464Z,13.93
2018-11-28T22:03:15.360Z,16.23
2018-11-28T22:05:44.493Z,15.95
2018-11-28T22:08:13.520Z,14.63
2018-11-28T22:10:42.486Z,14.63
2018-11-28T22:13:11.551Z,16.00
2018-11-28T22:15:40.256Z,12.90
2018-11-28T22:18:09.513Z,14.40
2018-11-28T22:20:38.386Z,14.28
2018-11-28T22:23:07.148Z,14.30
2018-11-28T22:25:35.965Z,14.65
2018-11-28T22:28:04.979Z,14.40
2018-11-28T22:30:34.071Z,14.00
2018-11-28T22:33:03.847Z,15.10
2018-11-28T22:35:32.804Z,13.00
2018-11-28T22:38:01.965Z,13.80
2018-11-28T22:40:31.862Z,13.60
2018-11-28T22:43:00.457Z,13.08
2018-11-28T22:45:33.520Z,15.75
2018-11-28T22:48:02.776Z,15.38
2018-11-28T22:50:31.618Z,14.80
2018-11-28T22:53:00.309Z,15.60
2018-11-28T22:55:29.761Z,14.43
2018-11-28T22:57:59.420Z,16.23
2018-11-28T23:00:33.863Z,12.98
2018-11-28T23:03:05.441Z,14.23
2018-11-28T23:05:42.529Z,14.28
2018-11-28T23:08:13.203Z,13.38
2018-11-28T23:10:42.066Z,14.95
2018-11-28T23:13:13.260Z,13.85
2018-11-28T23:15:42.980Z,15.93
2018-11-28T23:18:12.366Z,14.47
2018-11-28T23:20:41.890Z,15.03
2018-11-28T23:23:10.740Z,13.43
2018-11-28T23:25:39.699Z,13.93
2018-11-28T23:28:08.928Z,13.32
2018-11-28T23:30:38.458Z,14.78
2018-11-28T23:33:08.596Z,14.07
2018-11-28T23:35:37.340Z,15.50
2018-11-28T23:38:06.875Z,13.90
2018-11-28T23:40:35.973Z,15.00
2018-11-28T23:43:04.953Z,13.13
2018-11-28T23:45:33.760Z,13.18
2018-11-28T23:48:02.584Z,14.83
2018-11-28T23:50:31.515Z,12.47
2018-11-28T23:53:00.335Z,12.95
2018-11-28T23:55:30.597Z,13.13
2018-11-28T23:57:59.190Z,13.78
